createdAt,value
2023-03-15T00:02:35.454Z,0.36
2023-03-15T00:06:02.050Z,0.38
2023-03-15T00:09:28.514Z,0.41
2023-03-15T00:12:42.686Z,0.44
2023-03-15T00:16:00.106Z,0.45
2023-03-15T00:19:08.716Z,0.44
2023-03-15T00:22:27.297Z,0.43
2023-03-15T00:25:50.496Z,0.42
2023-03-15T00:28:58.893Z,0.44
2023-03-15T00:32:07.031Z,0.41
2023-03-15T00:35:18.800Z,0.39
2023-03-15T00:38:27.048Z,0.34
2023-03-15T00:41:41.779Z,0.34
2023-03-15T00:44:56.230Z,0.26
2023-03-15T00:48:19.457Z,0.20
2023-03-15T00:51:45.587Z,0.14
2023-03-15T00:54:54.523Z,0.09
2023-03-15T00:58:03.185Z,0.04
2023-03-15T01:01:19.674Z,-0.01
2023-03-15T01:04:36.446Z,-0.05
2023-03-15T01:07:45.694Z,-0.09
2023-03-15T01:10:54.511Z,-0.13
2023-03-15T01:14:20.036Z,-0.17
2023-03-15T01:17:28.915Z,-0.23
2023-03-15T01:20:35.032Z,-0.26
2023-03-15T01:23:42.823Z,-0.28
2023-03-15T01:26:55.707Z,-0.33
2023-03-15T01:30:21.388Z,-0.37
2023-03-15T01:33:40.419Z,-0.42
2023-03-15T01:36:53.979Z,-0.44
2023-03-15T01:40:06.534Z,-0.50
2023-03-15T01:43:18.163Z,-0.52
2023-03-15T01:46:43.878Z,-0.59
2023-03-15T01:49:55.634Z,-0.62
2023-03-15T01:53:03.667Z,-0.63
2023-03-15T01:56:20.752Z,-0.63
2023-03-15T01:59:41.764Z,-0.65
2023-03-15T02:02:50.836Z,-0.66
2023-03-15T02:06:18.084Z,-0.68
2023-03-15T02:09:32.218Z,-0.70
2023-03-15T02:12:42.888Z,-0.75
2023-03-15T02:15:48.454Z,-0.79
2023-03-15T02:19:00.152Z,-0.84
2023-03-15T02:22:24.156Z,-0.87
2023-03-15T02:25:46.672Z,-0.92
2023-03-15T02:29:04.346Z,-0.97
2023-03-15T02:32:10.562Z,-0.98
2023-03-15T02:35:36.723Z,-1.02
2023-03-15T02:39:03.585Z,-1.03
2023-03-15T02:42:14.938Z,-1.04
2023-03-15T02:45:33.037Z,-1.06
2023-03-15T02:48:59.504Z,-1.09
2023-03-15T02:52:18.396Z,-1.11
2023-03-15T02:55:42.979Z,-1.11
2023-03-15T02:58:57.629Z,-1.10
2023-03-15T03:02:22.378Z,-1.09
2023-03-15T03:05:30.383Z,-1.10
2023-03-15T03:08:51.485Z,-1.10
2023-03-15T03:12:10.323Z,-1.11
2023-03-15T03:15:28.690Z,-1.12
2023-03-15T03:18:53.345Z,-1.13
2023-03-15T03:22:13.260Z,-1.18
2023-03-15T03:25:33.028Z,-1.23
2023-03-15T03:28:51.346Z,-1.27
2023-03-15T03:32:00.949Z,-1.32
2023-03-15T03:35:26.765Z,-1.38
2023-03-15T03:38:54.084Z,-1.43
2023-03-15T03:42:12.623Z,-1.49
2023-03-15T03:45:38.558Z,-1.50
2023-03-15T03:48:57.368Z,-1.53
2023-03-15T03:52:23.031Z,-1.57
2023-03-15T03:55:49.204Z,-1.60
2023-03-15T03:59:14.814Z,-1.65
2023-03-15T04:02:42.755Z,-1.67
2023-03-15T04:06:05.752Z,-1.67
2023-03-15T04:09:31.653Z,-1.70
2023-03-15T04:12:40.269Z,-1.71
2023-03-15T04:15:57.823Z,-1.73
2023-03-15T04:19:12.888Z,-1.72
2023-03-15T04:22:38.583Z,-1.73
2023-03-15T04:26:06.996Z,-1.74
2023-03-15T04:29:32.940Z,-1.74
2023-03-15T04:33:03.484Z,-1.76
2023-03-15T04:36:31.907Z,-1.75
2023-03-15T04:40:07.204Z,-1.74
2023-03-15T04:43:38.509Z,-1.75
2023-03-15T04:47:07.059Z,-1.75
2023-03-15T04:50:32.813Z,-1.76
2023-03-15T04:53:58.594Z,-1.73
2023-03-15T04:57:26.870Z,-1.74
2023-03-15T05:00:41.617Z,-1.74
2023-03-15T05:04:07.590Z,-1.75
2023-03-15T05:07:34.371Z,-1.78
2023-03-15T05:11:11.935Z,-1.82
2023-03-15T05:14:46.326Z,-1.82
2023-03-15T05:18:12.790Z,-1.82
2023-03-15T05:21:41.238Z,-1.82
2023-03-15T05:25:05.621Z,-1.80
2023-03-15T05:28:37.218Z,-1.77
2023-03-15T05:32:04.608Z,-1.73
2023-03-15T05:35:39.318Z,-1.70
2023-03-15T05:39:08.173Z,-1.68
2023-03-15T05:42:34.138Z,-1.67
2023-03-15T05:46:00.724Z,-1.66
2023-03-15T05:49:27.353Z,-1.58
2023-03-15T05:53:05.020Z,-1.49
2023-03-15T05:56:34.514Z,-1.44
2023-03-15T06:00:08.411Z,-1.39
2023-03-15T06:03:19.879Z,-1.35
2023-03-15T06:06:45.841Z,-1.32
2023-03-15T06:10:05.903Z,-1.29
2023-03-15T06:13:32.390Z,-1.28
2023-03-15T06:16:58.746Z,-1.28
2023-03-15T06:20:24.468Z,-1.25
2023-03-15T06:23:50.692Z,-1.19
2023-03-15T06:27:16.382Z,-1.14
2023-03-15T06:30:42.446Z,-1.11
2023-03-15T06:34:09.967Z,-1.07
2023-03-15T06:37:37.109Z,-1.01
2023-03-15T06:41:05.090Z,-0.96
2023-03-15T06:44:30.802Z,-0.92
2023-03-15T06:47:56.911Z,-0.88
2023-03-15T06:51:24.273Z,-0.82
2023-03-15T06:54:49.984Z,-0.73
2023-03-15T06:58:15.940Z,-0.65
2023-03-15T07:01:42.659Z,-0.49
2023-03-15T07:05:09.507Z,-0.30
2023-03-15T07:08:35.367Z,-0.17
2023-03-15T07:12:01.423Z,-0.05
2023-03-15T07:15:27.209Z,0.12
2023-03-15T07:18:55.519Z,0.29
2023-03-15T07:22:22.491Z,0.44
2023-03-15T07:25:55.096Z,0.57
2023-03-15T07:29:21.230Z,0.66
2023-03-15T07:32:47.911Z,0.77
2023-03-15T07:36:14.640Z,0.80
2023-03-15T07:39:41.356Z,0.85
2023-03-15T07:43:07.083Z,0.86
2023-03-15T07:46:32.815Z,0.78
2023-03-15T07:49:58.609Z,0.84
2023-03-15T07:53:24.391Z,0.86
2023-03-15T07:56:50.377Z,0.89
2023-03-15T08:00:17.184Z,0.94
2023-03-15T08:03:42.956Z,1.14
2023-03-15T08:07:09.026Z,1.50
2023-03-15T08:10:35.672Z,1.68
2023-03-15T08:14:01.508Z,1.87
2023-03-15T08:18:01.013Z,2.09
2023-03-15T08:21:26.806Z,2.44
2023-03-15T08:24:53.359Z,2.62
2023-03-15T08:28:19.410Z,2.79
2023-03-15T08:31:45.369Z,2.88
2023-03-15T08:35:15.464Z,3.03
2023-03-15T08:39:02.775Z,3.10
2023-03-15T08:42:28.528Z,3.02
2023-03-15T08:46:01.136Z,3.14
2023-03-15T08:49:27.458Z,3.23
2023-03-15T08:52:53.288Z,3.01
2023-03-15T08:56:22.287Z,3.11
2023-03-15T08:59:47.946Z,3.45
2023-03-15T09:03:16.087Z,3.66
2023-03-15T09:06:42.295Z,3.88
2023-03-15T09:09:48.277Z,4.19
2023-03-15T09:13:13.981Z,4.54
2023-03-15T09:16:31.034Z,4.77
2023-03-15T09:19:47.616Z,5.00
2023-03-15T09:23:00.865Z,5.16
2023-03-15T09:26:06.737Z,5.32
2023-03-15T09:29:23.256Z,5.22
2023-03-15T09:32:36.236Z,5.19
2023-03-15T09:35:57.166Z,4.88
2023-03-15T09:39:08.486Z,4.73
2023-03-15T09:42:32.601Z,4.70
2023-03-15T09:46:04.063Z,4.58
2023-03-15T09:49:15.370Z,4.55
2023-03-15T09:53:03.399Z,4.62
2023-03-15T09:56:19.921Z,4.67
2023-03-15T09:59:47.995Z,4.86
2023-03-15T10:03:18.343Z,4.87
2023-03-15T10:06:37.769Z,4.76
2023-03-15T10:09:58.489Z,4.79
2023-03-15T10:13:33.114Z,4.92
2023-03-15T10:16:50.113Z,4.92
2023-03-15T10:20:19.148Z,4.90
2023-03-15T10:23:42.869Z,4.80
2023-03-15T10:27:00.264Z,4.40
2023-03-15T10:30:14.392Z,4.08
2023-03-15T10:33:27.528Z,3.97
2023-03-15T10:36:38.953Z,3.96
2023-03-15T10:39:57.133Z,3.96
2023-03-15T10:43:23.737Z,3.99
2023-03-15T10:46:39.519Z,4.05
2023-03-15T10:50:05.737Z,4.17
2023-03-15T10:53:31.488Z,4.49
2023-03-15T10:56:43.291Z,4.83
2023-03-15T10:59:58.809Z,5.54
2023-03-15T11:03:08.201Z,6.20
2023-03-15T11:06:22.869Z,6.65
2023-03-15T11:09:52.721Z,6.77
2023-03-15T11:13:22.700Z,6.71
2023-03-15T11:16:34.650Z,6.89
2023-03-15T11:19:47.629Z,7.06
2023-03-15T11:22:55.300Z,7.00
2023-03-15T11:26:31.926Z,7.04
2023-03-15T11:29:52.974Z,6.85
2023-03-15T11:33:03.586Z,6.54
2023-03-15T11:36:31.969Z,6.31
2023-03-15T11:39:40.341Z,6.07
2023-03-15T11:42:50.593Z,5.82
2023-03-15T11:45:59.036Z,5.67
2023-03-15T11:49:32.594Z,5.40
2023-03-15T11:52:51.186Z,5.39
2023-03-15T11:56:24.865Z,5.70
2023-03-15T11:59:37.021Z,5.88
2023-03-15T12:02:54.713Z,6.02
2023-03-15T12:06:05.771Z,6.34
2023-03-15T12:09:49.117Z,6.77
2023-03-15T12:13:00.546Z,7.35
2023-03-15T12:16:09.260Z,7.66
2023-03-15T12:19:18.234Z,7.78
2023-03-15T12:22:34.369Z,7.49
2023-03-15T12:25:54.356Z,7.11
2023-03-15T12:29:29.587Z,6.70
2023-03-15T12:32:57.070Z,6.63
2023-03-15T12:36:06.160Z,6.74
2023-03-15T12:39:41.694Z,6.98
2023-03-15T12:43:04.523Z,7.17
2023-03-15T12:46:30.340Z,7.37
2023-03-15T12:49:46.810Z,7.39
2023-03-15T12:53:00.784Z,7.06
2023-03-15T12:56:34.361Z,6.88
2023-03-15T13:00:01.648Z,7.09
2023-03-15T13:03:11.980Z,7.05
2023-03-15T13:06:32.717Z,6.92
2023-03-15T13:10:11.487Z,6.67
2023-03-15T13:14:03.101Z,6.24
2023-03-15T13:17:19.759Z,5.99
2023-03-15T13:20:49.527Z,5.64
2023-03-15T13:24:21.774Z,5.38
2023-03-15T13:27:52.428Z,5.21
2023-03-15T13:31:14.554Z,5.11
2023-03-15T13:34:24.517Z,5.02
2023-03-15T13:37:41.989Z,4.85
2023-03-15T13:41:17.753Z,4.59
2023-03-15T13:44:43.673Z,4.35
2023-03-15T13:48:13.405Z,4.08
2023-03-15T13:51:40.234Z,3.92
2023-03-15T13:54:46.184Z,3.82
2023-03-15T13:58:12.536Z,3.83
2023-03-15T14:01:43.054Z,3.67
2023-03-15T14:05:11.440Z,3.70
2023-03-15T14:08:31.915Z,3.88
2023-03-15T14:12:06.062Z,3.97
2023-03-15T14:15:24.988Z,3.86
2023-03-15T14:18:55.181Z,3.73
2023-03-15T14:22:21.109Z,3.62
2023-03-15T14:25:37.471Z,3.57
2023-03-15T14:29:07.625Z,3.47
2023-03-15T14:32:34.111Z,3.44
2023-03-15T14:35:44.678Z,3.37
2023-03-15T14:38:55.349Z,3.37
2023-03-15T14:42:21.216Z,3.51
2023-03-15T14:45:29.481Z,3.75
2023-03-15T14:48:55.281Z,3.95
2023-03-15T14:52:21.145Z,3.95
2023-03-15T14:55:46.905Z,3.91
2023-03-15T14:59:14.247Z,3.82
2023-03-15T15:02:40.327Z,3.76
2023-03-15T15:06:07.929Z,3.61
2023-03-15T15:09:34.038Z,3.74
2023-03-15T15:12:39.725Z,3.80
2023-03-15T15:16:05.928Z,3.84
2023-03-15T15:19:31.834Z,3.87
2023-03-15T15:22:48.578Z,4.12
2023-03-15T15:26:18.405Z,4.35
2023-03-15T15:29:44.976Z,4.56
2023-03-15T15:33:11.642Z,4.84
2023-03-15T15:36:41.572Z,5.07
2023-03-15T15:40:00.676Z,5.25
2023-03-15T15:43:26.589Z,5.44
2023-03-15T15:46:42.423Z,5.61
2023-03-15T15:49:48.085Z,5.58
2023-03-15T15:53:16.760Z,5.56
2023-03-15T15:56:36.747Z,5.67
2023-03-15T15:59:42.338Z,5.73
2023-03-15T16:03:14.874Z,5.70
2023-03-15T16:06:31.388Z,5.55
2023-03-15T16:09:59.088Z,5.36
2023-03-15T16:13:14.726Z,5.31
2023-03-15T16:16:34.257Z,5.40
2023-03-15T16:19:58.580Z,5.45
2023-03-15T16:23:19.589Z,5.46
2023-03-15T16:26:37.668Z,5.42
2023-03-15T16:29:47.828Z,5.31
2023-03-15T16:33:16.449Z,4.98
2023-03-15T16:36:43.642Z,4.56
2023-03-15T16:40:14.745Z,4.19
2023-03-15T16:43:40.532Z,3.84
2023-03-15T16:46:55.993Z,3.53
2023-03-15T16:50:21.801Z,3.25
2023-03-15T16:53:47.454Z,2.98
2023-03-15T16:57:15.374Z,2.74
2023-03-15T17:00:44.361Z,2.50
2023-03-15T17:04:00.041Z,2.28
2023-03-15T17:07:28.911Z,2.04
2023-03-15T17:10:54.761Z,1.79
2023-03-15T17:14:23.699Z,1.57
2023-03-15T17:18:37.023Z,1.35
2023-03-15T17:21:39.796Z,1.11
2023-03-15T17:24:55.698Z,0.88
2023-03-15T17:28:22.829Z,0.68
2023-03-15T17:31:52.632Z,0.48
2023-03-15T17:35:19.823Z,0.29
2023-03-15T17:38:42.565Z,0.14
2023-03-15T17:42:10.976Z,0.01
2023-03-15T17:45:37.138Z,-0.13
2023-03-15T17:49:04.858Z,-0.28
2023-03-15T17:52:31.213Z,-0.38
2023-03-15T17:55:55.504Z,-0.48
2023-03-15T17:59:13.231Z,-0.61
2023-03-15T18:02:46.210Z,-0.72
2023-03-15T18:06:09.754Z,-0.78
2023-03-15T18:09:29.864Z,-0.83
2023-03-15T18:12:55.944Z,-0.89
2023-03-15T18:16:21.783Z,-0.93
2023-03-15T18:19:38.501Z,-0.98
2023-03-15T18:22:54.249Z,-1.01
2023-03-15T18:26:21.673Z,-1.08
2023-03-15T18:29:40.233Z,-1.12
2023-03-15T18:33:06.136Z,-1.18
2023-03-15T18:36:52.032Z,-1.24
2023-03-15T18:40:18.888Z,-1.24
2023-03-15T18:43:49.920Z,-1.16
2023-03-15T18:47:08.032Z,-1.15
2023-03-15T18:50:21.463Z,-1.17
2023-03-15T18:53:47.408Z,-1.23
2023-03-15T18:57:02.964Z,-1.29
2023-03-15T19:00:29.986Z,-1.37
2023-03-15T19:03:55.589Z,-1.49
2023-03-15T19:07:22.276Z,-1.58
2023-03-15T19:10:49.467Z,-1.67
2023-03-15T19:13:58.655Z,-1.75
2023-03-15T19:17:23.677Z,-1.82
2023-03-15T19:20:47.647Z,-1.86
2023-03-15T19:24:15.377Z,-1.94
2023-03-15T19:27:40.214Z,-2.02
2023-03-15T19:31:00.028Z,-2.07
2023-03-15T19:34:30.639Z,-2.15
2023-03-15T19:37:57.187Z,-2.25
2023-03-15T19:41:23.020Z,-2.34
2023-03-15T19:44:49.478Z,-2.43
2023-03-15T19:48:11.456Z,-2.53
2023-03-15T19:51:20.048Z,-2.65
2023-03-15T19:54:31.012Z,-2.74
2023-03-15T19:57:48.165Z,-2.84
2023-03-15T20:01:16.044Z,-2.95
2023-03-15T20:04:25.088Z,-3.05
2023-03-15T20:07:33.095Z,-3.14
2023-03-15T20:10:45.351Z,-3.25
2023-03-15T20:14:11.217Z,-3.34
2023-03-15T20:17:37.437Z,-3.44
2023-03-15T20:21:04.219Z,-3.53
2023-03-15T20:24:12.497Z,-3.57
2023-03-15T20:27:39.641Z,-3.59
2023-03-15T20:30:58.788Z,-3.58
2023-03-15T20:34:11.263Z,-3.56
2023-03-15T20:37:37.605Z,-3.53
2023-03-15T20:40:54.638Z,-3.51
2023-03-15T20:44:21.464Z,-3.49
2023-03-15T20:47:41.932Z,-3.47
2023-03-15T20:51:10.642Z,-3.47
2023-03-15T20:54:37.966Z,-3.50
2023-03-15T20:58:04.969Z,-3.54
2023-03-15T21:01:32.058Z,-3.56
2023-03-15T21:04:57.662Z,-3.63
2023-03-15T21:08:17.899Z,-3.71
2023-03-15T21:11:47.463Z,-3.75
2023-03-15T21:15:17.974Z,-3.76
2023-03-15T21:18:53.798Z,-3.78
2023-03-15T21:22:19.589Z,-3.79
2023-03-15T21:25:45.313Z,-3.79
2023-03-15T21:28:59.842Z,-3.79
2023-03-15T21:32:08.424Z,-3.76
2023-03-15T21:35:14.011Z,-3.71
2023-03-15T21:38:32.312Z,-3.64
2023-03-15T21:41:50.794Z,-3.56
2023-03-15T21:44:56.345Z,-3.55
2023-03-15T21:48:11.847Z,-3.56
2023-03-15T21:51:22.460Z,-3.59
2023-03-15T21:54:28.941Z,-3.63
2023-03-15T21:57:34.805Z,-3.67
2023-03-15T22:00:58.101Z,-3.71
2023-03-15T22:04:06.787Z,-3.71
2023-03-15T22:07:14.886Z,-3.68
2023-03-15T22:10:40.750Z,-3.60
2023-03-15T22:13:53.819Z,-3.54
2023-03-15T22:17:13.426Z,-3.49
2023-03-15T22:20:19.205Z,-3.39
2023-03-15T22:23:24.848Z,-3.24
2023-03-15T22:26:43.039Z,-3.09
2023-03-15T22:29:53.311Z,-2.98
2023-03-15T22:32:59.359Z,-2.87
2023-03-15T22:36:17.144Z,-2.80
2023-03-15T22:39:27.853Z,-2.76
2023-03-15T22:42:46.908Z,-2.74
2023-03-15T22:46:12.981Z,-2.71
2023-03-15T22:49:18.485Z,-2.64
2023-03-15T22:52:29.855Z,-2.55
2023-03-15T22:55:37.790Z,-2.41
2023-03-15T22:58:55.611Z,-2.32
2023-03-15T23:02:12.077Z,-2.28
2023-03-15T23:05:21.386Z,-2.23
2023-03-15T23:08:26.822Z,-2.20
2023-03-15T23:11:35.425Z,-2.18
2023-03-15T23:14:52.142Z,-2.16
2023-03-15T23:18:01.891Z,-2.11
2023-03-15T23:21:11.204Z,-2.14
2023-03-15T23:24:19.847Z,-2.14
2023-03-15T23:27:26.193Z,-2.12
2023-03-15T23:30:36.104Z,-2.10
2023-03-15T23:33:47.366Z,-2.10
2023-03-15T23:36:55.269Z,-2.12
2023-03-15T23:40:09.495Z,-2.14
2023-03-15T23:43:18.754Z,-2.23
2023-03-15T23:46:36.179Z,-2.37
2023-03-15T23:49:43.683Z,-2.48
2023-03-15T23:52:52.542Z,-2.60
2023-03-15T23:56:01.412Z,-2.69
2023-03-15T23:59:14.604Z,-2.75
